Wicomico Church, Virginia
Current Conditions -  °F | °C
As of 10:15 PM on Monday 26 Jan 2015 (Local Time) from KW75 Reporting Station
Overcast Overcast  
Wind Chill: 22°   Ceiling: 1000
Heat Index: 33°   Visibility: 7mi
Dew Point: 31°   Wind: 16mph
Humidity: 91%   Direction: 330°NNW
Pressure: 29.66"   Gusts: 21mph
Location:  37.82°N, 76.38°W
Report Text: KW75 270315Z AUTO 33014G18KT 7SM OVC010 01/M01 A2966 RMK AO1 T00051008
Loading
Personal Weather Stations






























Interactive Weather Map New forecast layout! Learn more

10-Day Weather Forecast

Advertisements
Track Severe Weather on mobile